Main page
METAR-TAF:

METAR-TAF

Airports :

Payam International Airport

Karaj, Iran

latitude: 35-46-34N, longitude: 050-49-36E, elevation: 1271 m

Current weather observation

The report was made 1 hour and 13 minutes ago, at 03:00 UTC
Wind 8 kt from the Southeast
Temperature 5°C
Humidity 75%
Pressure 1021 hPa
Visibility: 4000 m
haze

METAR: OIIP 090300Z 14008KT 4000 HZ NSC 05/01 Q1020 A3014

Time: 07:43 (04:13 UTC)

Forecast

The report was made 2 hours and 3 minutes ago, at 02:10 UTC
Forecast valid from 09 at 03 UTC to 09 at 12 UTC
Wind 8 kt from the Southeast
Visibility: 4000 m
Few clouds at a height of 4000 ft
Becoming
from 09 at 07 UTC to 09 at 08 UTC
Visibility: 6000 m
Few clouds at a height of 3500 ft
Scattered clouds at a height of 10000 ft

TAF: OIIP 090210Z 0903/0912 13008KT 4000 BR/HZ FEW040 BECMG 0907/0908 6000 FEW035 SCT100

Weather observations and forecasts of more than 4000 airports (METAR and TAF reports).

The available stations are represented by yellow and red dots on the map.

Hover mouse over dot to see the name of the station.

Then click to see weather observations and forecasts.

To change the map : click on the green buttons with a black cross to zoom in, on the green button with a dash to zoom out, or on the green arrows for adjacent maps.


METAR-TAF: